Grand Forks, North Dakota
Current Conditions -  °F | °C
As of 10:53 AM on Tuesday 21 Oct 2014 (Local Time) from KGFK Reporting Station
Clear Clear  
Wind Chill: 50°   Ceiling: Unl
Heat Index: 50°   Visibility: 10mi
Dew Point: 41°   Wind: 17mph
Humidity: 71%   Direction: 170°S
Pressure: 29.99"   Gusts: 28mph
Location:  47.92°N, 97.03°W
Report Text: KGFK 211553Z 17015G24KT 10SM CLR 10/05 A2999 RMK AO2 SLP162 T01000050
Loading
Personal Weather Stations






























Interactive Weather Map
Tropical Storm Tracking
New forecast layout! Learn more

10-Day Weather Forecast

Advertisements
Track Severe Weather on mobile